sensor_id;sensor_type;location;lat;lon;timestamp;temperature;humidity
19242;DHT22;9755;47.790;9.620;2023-02-01T00:00:28;3.70;1.00
19242;DHT22;9755;47.790;9.620;2023-02-01T00:02:55;3.70;1.00
19242;DHT22;9755;47.790;9.620;2023-02-01T00:05:22;3.80;1.00
19242;DHT22;9755;47.790;9.620;2023-02-01T00:07:50;3.80;1.00
19242;DHT22;9755;47.790;9.620;2023-02-01T00:10:18;3.80;1.00
19242;DHT22;9755;47.790;9.620;2023-02-01T00:12:45;3.80;1.00
19242;DHT22;9755;47.790;9.620;2023-02-01T00:15:12;3.80;1.00
19242;DHT22;9755;47.790;9.620;2023-02-01T00:17:39;3.80;1.00
19242;DHT22;9755;47.790;9.620;2023-02-01T00:20:08;3.80;99.90
19242;DHT22;9755;47.790;9.620;2023-02-01T00:22:35;3.80;99.90
19242;DHT22;9755;47.790;9.620;2023-02-01T00:25:02;3.80;99.90
19242;DHT22;9755;47.790;9.620;2023-02-01T00:27:31;3.80;99.90
19242;DHT22;9755;47.790;9.620;2023-02-01T00:29:58;3.80;99.90
19242;DHT22;9755;47.790;9.620;2023-02-01T00:32:25;3.80;99.90
19242;DHT22;9755;47.790;9.620;2023-02-01T00:34:52;3.80;99.90
19242;DHT22;9755;47.790;9.620;2023-02-01T00:37:19;3.80;99.90
19242;DHT22;9755;47.790;9.620;2023-02-01T00:39:47;3.80;99.90
19242;DHT22;9755;47.790;9.620;2023-02-01T00:42:15;3.80;99.90
19242;DHT22;9755;47.790;9.620;2023-02-01T00:44:43;3.80;99.90
19242;DHT22;9755;47.790;9.620;2023-02-01T00:47:10;3.80;99.90
19242;DHT22;9755;47.790;9.620;2023-02-01T00:49:37;3.70;99.90
19242;DHT22;9755;47.790;9.620;2023-02-01T00:52:04;3.80;99.90
19242;DHT22;9755;47.790;9.620;2023-02-01T00:54:31;3.80;99.90
19242;DHT22;9755;47.790;9.620;2023-02-01T00:56:59;3.80;99.90
19242;DHT22;9755;47.790;9.620;2023-02-01T00:59:26;3.80;99.90
19242;DHT22;9755;47.790;9.620;2023-02-01T01:01:55;3.80;99.90
19242;DHT22;9755;47.790;9.620;2023-02-01T01:04:22;3.80;99.90
19242;DHT22;9755;47.790;9.620;2023-02-01T01:06:49;3.80;99.90
19242;DHT22;9755;47.790;9.620;2023-02-01T01:09:16;3.80;99.90
19242;DHT22;9755;47.790;9.620;2023-02-01T01:11:43;3.80;99.90
19242;DHT22;9755;47.790;9.620;2023-02-01T01:14:10;3.80;99.90
19242;DHT22;9755;47.790;9.620;2023-02-01T01:16:38;3.70;99.90
19242;DHT22;9755;47.790;9.620;2023-02-01T01:19:06;3.70;99.90
19242;DHT22;9755;47.790;9.620;2023-02-01T01:21:33;3.70;99.90
19242;DHT22;9755;47.790;9.620;2023-02-01T01:24:00;3.80;99.90
19242;DHT22;9755;47.790;9.620;2023-02-01T01:26:28;3.80;99.90
19242;DHT22;9755;47.790;9.620;2023-02-01T01:28:57;3.80;99.90
19242;DHT22;9755;47.790;9.620;2023-02-01T01:31:27;3.70;99.90
19242;DHT22;9755;47.790;9.620;2023-02-01T01:33:55;3.70;99.90
19242;DHT22;9755;47.790;9.620;2023-02-01T01:36:25;3.70;99.90
19242;DHT22;9755;47.790;9.620;2023-02-01T01:38:53;3.70;99.90
19242;DHT22;9755;47.790;9.620;2023-02-01T01:41:22;3.70;99.90
19242;DHT22;9755;47.790;9.620;2023-02-01T01:43:52;3.70;99.90
19242;DHT22;9755;47.790;9.620;2023-02-01T01:46:21;3.70;99.90
19242;DHT22;9755;47.790;9.620;2023-02-01T01:48:53;3.70;99.90
19242;DHT22;9755;47.790;9.620;2023-02-01T01:51:24;3.70;99.90
19242;DHT22;9755;47.790;9.620;2023-02-01T01:54:00;3.80;99.90
19242;DHT22;9755;47.790;9.620;2023-02-01T01:56:29;3.70;99.90
19242;DHT22;9755;47.790;9.620;2023-02-01T01:58:56;3.70;99.90
19242;DHT22;9755;47.790;9.620;2023-02-01T02:01:24;3.70;99.90
19242;DHT22;9755;47.790;9.620;2023-02-01T02:03:52;3.70;99.90
19242;DHT22;9755;47.790;9.620;2023-02-01T02:06:30;3.70;99.90
19242;DHT22;9755;47.790;9.620;2023-02-01T02:09:01;3.70;99.90
19242;DHT22;9755;47.790;9.620;2023-02-01T02:11:28;3.70;99.90
19242;DHT22;9755;47.790;9.620;2023-02-01T02:13:56;3.70;99.90
19242;DHT22;9755;47.790;9.620;2023-02-01T02:16:44;3.70;99.90
19242;DHT22;9755;47.790;9.620;2023-02-01T02:19:30;3.60;99.90
19242;DHT22;9755;47.790;9.620;2023-02-01T02:22:14;3.60;99.90
19242;DHT22;9755;47.790;9.620;2023-02-01T02:27:51;3.60;99.90
19242;DHT22;9755;47.790;9.620;2023-02-01T02:30:51;3.60;99.90
19242;DHT22;9755;47.790;9.620;2023-02-01T02:33:37;3.60;99.90
19242;DHT22;9755;47.790;9.620;2023-02-01T02:36:10;3.60;99.90
19242;DHT22;9755;47.790;9.620;2023-02-01T02:38:45;3.60;99.90
19242;DHT22;9755;47.790;9.620;2023-02-01T02:41:16;3.60;99.90
19242;DHT22;9755;47.790;9.620;2023-02-01T02:44:11;3.60;99.90
19242;DHT22;9755;47.790;9.620;2023-02-01T02:47:16;3.70;99.90
19242;DHT22;9755;47.790;9.620;2023-02-01T02:50:09;3.70;99.90
19242;DHT22;9755;47.790;9.620;2023-02-01T02:52:58;3.70;99.90
19242;DHT22;9755;47.790;9.620;2023-02-01T02:55:45;3.60;99.90
19242;DHT22;9755;47.790;9.620;2023-02-01T02:58:16;3.60;99.90
19242;DHT22;9755;47.790;9.620;2023-02-01T03:01:01;3.70;99.90
19242;DHT22;9755;47.790;9.620;2023-02-01T03:03:48;3.70;99.90
19242;DHT22;9755;47.790;9.620;2023-02-01T03:06:37;3.70;99.90
19242;DHT22;9755;47.790;9.620;2023-02-01T03:09:11;3.70;99.90
19242;DHT22;9755;47.790;9.620;2023-02-01T03:11:40;3.70;99.90
19242;DHT22;9755;47.790;9.620;2023-02-01T03:14:30;3.70;99.90
19242;DHT22;9755;47.790;9.620;2023-02-01T03:17:05;3.70;99.90
19242;DHT22;9755;47.790;9.620;2023-02-01T03:19:38;3.70;99.90
19242;DHT22;9755;47.790;9.620;2023-02-01T03:22:14;3.70;99.90
19242;DHT22;9755;47.790;9.620;2023-02-01T03:24:45;3.70;99.90
19242;DHT22;9755;47.790;9.620;2023-02-01T03:27:16;3.70;98.70
19242;DHT22;9755;47.790;9.620;2023-02-01T03:29:48;3.70;92.60
19242;DHT22;9755;47.790;9.620;2023-02-01T03:32:16;3.60;81.20
19242;DHT22;9755;47.790;9.620;2023-02-01T03:34:44;3.60;86.40
19242;DHT22;9755;47.790;9.620;2023-02-01T03:37:16;3.60;42.50
19242;DHT22;9755;47.790;9.620;2023-02-01T03:39:53;3.60;58.80
19242;DHT22;9755;47.790;9.620;2023-02-01T03:42:28;3.70;17.50
19242;DHT22;9755;47.790;9.620;2023-02-01T03:45:01;3.60;1.00
19242;DHT22;9755;47.790;9.620;2023-02-01T03:47:34;3.60;1.00
19242;DHT22;9755;47.790;9.620;2023-02-01T03:50:04;3.60;1.00
19242;DHT22;9755;47.790;9.620;2023-02-01T03:52:39;3.60;1.00
19242;DHT22;9755;47.790;9.620;2023-02-01T03:55:08;3.60;1.00
19242;DHT22;9755;47.790;9.620;2023-02-01T03:57:43;3.60;1.00
19242;DHT22;9755;47.790;9.620;2023-02-01T04:00:17;3.60;1.00
19242;DHT22;9755;47.790;9.620;2023-02-01T04:02:44;3.60;1.00
19242;DHT22;9755;47.790;9.620;2023-02-01T04:05:12;3.60;1.00
19242;DHT22;9755;47.790;9.620;2023-02-01T04:07:40;3.70;1.00
19242;DHT22;9755;47.790;9.620;2023-02-01T04:10:09;3.60;1.00
19242;DHT22;9755;47.790;9.620;2023-02-01T04:12:36;3.60;1.00
19242;DHT22;9755;47.790;9.620;2023-02-01T04:15:07;3.70;1.00
19242;DHT22;9755;47.790;9.620;2023-02-01T04:17:34;3.60;1.00
19242;DHT22;9755;47.790;9.620;2023-02-01T04:20:01;3.60;1.00
19242;DHT22;9755;47.790;9.620;2023-02-01T04:22:30;3.60;1.00
19242;DHT22;9755;47.790;9.620;2023-02-01T04:24:58;3.60;1.00
19242;DHT22;9755;47.790;9.620;2023-02-01T04:27:26;3.60;1.00
19242;DHT22;9755;47.790;9.620;2023-02-01T04:29:53;3.60;1.00
19242;DHT22;9755;47.790;9.620;2023-02-01T04:32:21;3.60;1.00
19242;DHT22;9755;47.790;9.620;2023-02-01T04:34:48;3.70;1.00
19242;DHT22;9755;47.790;9.620;2023-02-01T04:37:15;3.70;1.00
19242;DHT22;9755;47.790;9.620;2023-02-01T04:39:42;3.70;1.00
19242;DHT22;9755;47.790;9.620;2023-02-01T04:42:10;3.60;1.00
19242;DHT22;9755;47.790;9.620;2023-02-01T04:44:38;3.60;6.50
19242;DHT22;9755;47.790;9.620;2023-02-01T04:47:07;3.60;7.30
19242;DHT22;9755;47.790;9.620;2023-02-01T04:49:35;3.60;17.40
19242;DHT22;9755;47.790;9.620;2023-02-01T04:52:02;3.60;40.20
19242;DHT22;9755;47.790;9.620;2023-02-01T04:54:29;3.60;67.50
19242;DHT22;9755;47.790;9.620;2023-02-01T04:56:56;3.60;74.70
19242;DHT22;9755;47.790;9.620;2023-02-01T04:59:26;3.50;99.90
19242;DHT22;9755;47.790;9.620;2023-02-01T05:01:54;3.50;96.70
19242;DHT22;9755;47.790;9.620;2023-02-01T05:04:21;3.50;99.90
19242;DHT22;9755;47.790;9.620;2023-02-01T05:06:48;3.50;99.90
19242;DHT22;9755;47.790;9.620;2023-02-01T05:09:15;3.50;99.90
19242;DHT22;9755;47.790;9.620;2023-02-01T05:11:42;3.50;99.90
19242;DHT22;9755;47.790;9.620;2023-02-01T05:14:38;3.50;99.90
19242;DHT22;9755;47.790;9.620;2023-02-01T05:17:07;3.50;99.90
19242;DHT22;9755;47.790;9.620;2023-02-01T05:19:34;3.50;99.90
19242;DHT22;9755;47.790;9.620;2023-02-01T05:22:01;3.40;99.90
19242;DHT22;9755;47.790;9.620;2023-02-01T05:24:28;3.40;99.90
19242;DHT22;9755;47.790;9.620;2023-02-01T05:26:56;3.40;99.90
19242;DHT22;9755;47.790;9.620;2023-02-01T05:29:23;3.40;99.90
19242;DHT22;9755;47.790;9.620;2023-02-01T05:31:51;3.50;99.90
19242;DHT22;9755;47.790;9.620;2023-02-01T05:34:18;3.40;99.90
19242;DHT22;9755;47.790;9.620;2023-02-01T05:36:45;3.40;99.90
19242;DHT22;9755;47.790;9.620;2023-02-01T05:39:12;3.40;99.90
19242;DHT22;9755;47.790;9.620;2023-02-01T05:41:39;3.40;99.90
19242;DHT22;9755;47.790;9.620;2023-02-01T05:44:06;3.40;99.90
19242;DHT22;9755;47.790;9.620;2023-02-01T05:47:04;3.40;99.90
19242;DHT22;9755;47.790;9.620;2023-02-01T05:49:31;3.40;99.90
19242;DHT22;9755;47.790;9.620;2023-02-01T05:51:59;3.40;99.90
19242;DHT22;9755;47.790;9.620;2023-02-01T05:54:26;3.40;99.90
19242;DHT22;9755;47.790;9.620;2023-02-01T05:56:53;3.30;99.90
19242;DHT22;9755;47.790;9.620;2023-02-01T05:59:20;3.30;99.90
19242;DHT22;9755;47.790;9.620;2023-02-01T06:01:47;3.30;99.90
19242;DHT22;9755;47.790;9.620;2023-02-01T06:04:16;3.30;99.90
19242;DHT22;9755;47.790;9.620;2023-02-01T06:06:43;3.30;1.00
19242;DHT22;9755;47.790;9.620;2023-02-01T06:09:10;3.30;1.00
19242;DHT22;9755;47.790;9.620;2023-02-01T06:11:37;3.30;1.00
19242;DHT22;9755;47.790;9.620;2023-02-01T06:14:04;3.30;1.00
19242;DHT22;9755;47.790;9.620;2023-02-01T06:16:33;3.30;1.00
19242;DHT22;9755;47.790;9.620;2023-02-01T06:19:00;3.30;1.00
19242;DHT22;9755;47.790;9.620;2023-02-01T06:21:28;3.30;99.90
19242;DHT22;9755;47.790;9.620;2023-02-01T06:23:55;3.30;99.90
19242;DHT22;9755;47.790;9.620;2023-02-01T06:26:23;3.40;99.90
19242;DHT22;9755;47.790;9.620;2023-02-01T06:28:50;3.30;99.90
19242;DHT22;9755;47.790;9.620;2023-02-01T06:31:18;3.40;99.90
19242;DHT22;9755;47.790;9.620;2023-02-01T06:33:45;3.40;99.90
19242;DHT22;9755;47.790;9.620;2023-02-01T06:36:12;3.30;99.90
19242;DHT22;9755;47.790;9.620;2023-02-01T06:38:42;3.40;99.90
19242;DHT22;9755;47.790;9.620;2023-02-01T06:41:10;3.40;99.90
19242;DHT22;9755;47.790;9.620;2023-02-01T06:43:37;3.30;99.90
19242;DHT22;9755;47.790;9.620;2023-02-01T06:46:07;3.30;99.90
19242;DHT22;9755;47.790;9.620;2023-02-01T06:48:34;3.30;99.90
19242;DHT22;9755;47.790;9.620;2023-02-01T06:51:01;3.30;99.90
19242;DHT22;9755;47.790;9.620;2023-02-01T06:53:28;3.30;99.90
19242;DHT22;9755;47.790;9.620;2023-02-01T06:55:58;3.40;99.90
19242;DHT22;9755;47.790;9.620;2023-02-01T06:58:28;3.40;99.90
19242;DHT22;9755;47.790;9.620;2023-02-01T07:00:55;3.40;99.90
19242;DHT22;9755;47.790;9.620;2023-02-01T07:03:22;3.40;99.90
19242;DHT22;9755;47.790;9.620;2023-02-01T07:05:49;3.40;1.00
19242;DHT22;9755;47.790;9.620;2023-02-01T07:08:16;3.30;1.00
19242;DHT22;9755;47.790;9.620;2023-02-01T07:10:43;3.40;1.00
19242;DHT22;9755;47.790;9.620;2023-02-01T07:13:12;3.40;1.00
19242;DHT22;9755;47.790;9.620;2023-02-01T07:15:39;3.40;1.00
19242;DHT22;9755;47.790;9.620;2023-02-01T07:18:06;3.40;1.00
19242;DHT22;9755;47.790;9.620;2023-02-01T07:20:33;3.40;1.00
19242;DHT22;9755;47.790;9.620;2023-02-01T07:23:00;3.40;1.00
19242;DHT22;9755;47.790;9.620;2023-02-01T07:25:27;3.40;1.00
19242;DHT22;9755;47.790;9.620;2023-02-01T07:27:54;3.40;1.00
19242;DHT22;9755;47.790;9.620;2023-02-01T07:30:22;3.30;1.00
19242;DHT22;9755;47.790;9.620;2023-02-01T07:32:51;3.40;1.00
19242;DHT22;9755;47.790;9.620;2023-02-01T07:35:18;3.40;1.00
19242;DHT22;9755;47.790;9.620;2023-02-01T07:37:45;3.40;1.00
19242;DHT22;9755;47.790;9.620;2023-02-01T07:40:12;3.40;1.00
19242;DHT22;9755;47.790;9.620;2023-02-01T07:42:39;3.40;1.00
19242;DHT22;9755;47.790;9.620;2023-02-01T07:45:07;3.40;1.00
19242;DHT22;9755;47.790;9.620;2023-02-01T07:47:35;3.40;99.90
19242;DHT22;9755;47.790;9.620;2023-02-01T07:50:03;3.40;99.90
19242;DHT22;9755;47.790;9.620;2023-02-01T07:52:30;3.40;99.90
19242;DHT22;9755;47.790;9.620;2023-02-01T07:54:57;3.50;99.90
19242;DHT22;9755;47.790;9.620;2023-02-01T07:57:24;3.40;99.90
19242;DHT22;9755;47.790;9.620;2023-02-01T07:59:51;3.50;99.90
19242;DHT22;9755;47.790;9.620;2023-02-01T08:02:37;3.50;99.90
19242;DHT22;9755;47.790;9.620;2023-02-01T08:05:04;3.50;99.90
19242;DHT22;9755;47.790;9.620;2023-02-01T08:07:31;3.60;99.90
19242;DHT22;9755;47.790;9.620;2023-02-01T08:09:58;3.60;99.90
19242;DHT22;9755;47.790;9.620;2023-02-01T08:12:26;3.60;99.90
19242;DHT22;9755;47.790;9.620;2023-02-01T08:14:53;3.60;99.90
19242;DHT22;9755;47.790;9.620;2023-02-01T08:17:22;3.60;99.90
19242;DHT22;9755;47.790;9.620;2023-02-01T08:19:50;3.70;99.90
19242;DHT22;9755;47.790;9.620;2023-02-01T08:22:17;3.70;99.90
19242;DHT22;9755;47.790;9.620;2023-02-01T08:24:47;3.70;99.90
19242;DHT22;9755;47.790;9.620;2023-02-01T08:27:14;3.70;99.90
19242;DHT22;9755;47.790;9.620;2023-02-01T08:29:41;3.60;99.90
19242;DHT22;9755;47.790;9.620;2023-02-01T08:32:08;3.60;99.90
19242;DHT22;9755;47.790;9.620;2023-02-01T08:34:35;3.60;99.90
19242;DHT22;9755;47.790;9.620;2023-02-01T08:37:04;3.60;99.90
19242;DHT22;9755;47.790;9.620;2023-02-01T08:39:32;3.70;99.90
19242;DHT22;9755;47.790;9.620;2023-02-01T08:41:59;3.60;99.90
19242;DHT22;9755;47.790;9.620;2023-02-01T08:44:44;3.60;99.90
19242;DHT22;9755;47.790;9.620;2023-02-01T08:47:11;3.60;1.00
19242;DHT22;9755;47.790;9.620;2023-02-01T08:49:38;3.50;1.00
19242;DHT22;9755;47.790;9.620;2023-02-01T08:52:06;3.60;1.00
19242;DHT22;9755;47.790;9.620;2023-02-01T08:54:33;3.50;1.00
19242;DHT22;9755;47.790;9.620;2023-02-01T08:57:00;3.50;1.00
19242;DHT22;9755;47.790;9.620;2023-02-01T08:59:28;3.60;1.00
19242;DHT22;9755;47.790;9.620;2023-02-01T09:01:55;3.60;1.00
19242;DHT22;9755;47.790;9.620;2023-02-01T09:04:22;3.60;1.00
19242;DHT22;9755;47.790;9.620;2023-02-01T09:06:49;3.60;1.00
19242;DHT22;9755;47.790;9.620;2023-02-01T09:09:18;3.60;1.00
19242;DHT22;9755;47.790;9.620;2023-02-01T09:11:45;3.60;1.00
19242;DHT22;9755;47.790;9.620;2023-02-01T09:14:12;3.70;1.00
19242;DHT22;9755;47.790;9.620;2023-02-01T09:16:39;3.80;1.00
19242;DHT22;9755;47.790;9.620;2023-02-01T09:19:06;3.80;1.00
19242;DHT22;9755;47.790;9.620;2023-02-01T09:21:33;3.70;1.00
19242;DHT22;9755;47.790;9.620;2023-02-01T09:24:00;3.80;1.00
19242;DHT22;9755;47.790;9.620;2023-02-01T09:26:28;3.80;1.00
19242;DHT22;9755;47.790;9.620;2023-02-01T09:28:55;3.80;1.00
19242;DHT22;9755;47.790;9.620;2023-02-01T09:31:22;3.90;1.00
19242;DHT22;9755;47.790;9.620;2023-02-01T09:33:49;3.90;1.00
19242;DHT22;9755;47.790;9.620;2023-02-01T09:36:16;3.90;1.00
19242;DHT22;9755;47.790;9.620;2023-02-01T09:38:46;3.90;1.00
19242;DHT22;9755;47.790;9.620;2023-02-01T09:41:21;3.90;9.00
19242;DHT22;9755;47.790;9.620;2023-02-01T09:43:59;3.90;3.10
19242;DHT22;9755;47.790;9.620;2023-02-01T09:46:30;4.00;1.00
19242;DHT22;9755;47.790;9.620;2023-02-01T09:49:05;4.00;1.00
19242;DHT22;9755;47.790;9.620;2023-02-01T09:51:35;4.10;33.80
19242;DHT22;9755;47.790;9.620;2023-02-01T09:54:05;4.10;1.70
19242;DHT22;9755;47.790;9.620;2023-02-01T09:56:40;4.10;52.60
19242;DHT22;9755;47.790;9.620;2023-02-01T09:59:19;4.10;99.90
19242;DHT22;9755;47.790;9.620;2023-02-01T10:01:50;4.10;65.70
19242;DHT22;9755;47.790;9.620;2023-02-01T10:04:17;4.10;48.10
19242;DHT22;9755;47.790;9.620;2023-02-01T10:07:01;4.20;99.90
19242;DHT22;9755;47.790;9.620;2023-02-01T10:09:38;4.20;98.70
19242;DHT22;9755;47.790;9.620;2023-02-01T10:12:49;4.20;67.20
19242;DHT22;9755;47.790;9.620;2023-02-01T10:15:34;4.30;1.00
19242;DHT22;9755;47.790;9.620;2023-02-01T10:21:09;4.30;1.00
19242;DHT22;9755;47.790;9.620;2023-02-01T10:24:02;4.30;1.00
19242;DHT22;9755;47.790;9.620;2023-02-01T10:26:33;4.40;1.00
19242;DHT22;9755;47.790;9.620;2023-02-01T10:29:05;4.40;1.00
19242;DHT22;9755;47.790;9.620;2023-02-01T10:31:38;4.50;1.00
19242;DHT22;9755;47.790;9.620;2023-02-01T10:34:15;4.60;1.00
19242;DHT22;9755;47.790;9.620;2023-02-01T10:36:52;4.60;1.00
19242;DHT22;9755;47.790;9.620;2023-02-01T10:39:20;4.70;1.00
19242;DHT22;9755;47.790;9.620;2023-02-01T10:41:47;4.70;1.00
19242;DHT22;9755;47.790;9.620;2023-02-01T10:44:17;4.70;1.00
19242;DHT22;9755;47.790;9.620;2023-02-01T10:46:46;4.60;1.00
19242;DHT22;9755;47.790;9.620;2023-02-01T10:49:18;4.60;1.00
19242;DHT22;9755;47.790;9.620;2023-02-01T10:51:49;4.60;1.00
19242;DHT22;9755;47.790;9.620;2023-02-01T10:54:20;4.60;1.00
19242;DHT22;9755;47.790;9.620;2023-02-01T10:56:48;4.70;99.90
19242;DHT22;9755;47.790;9.620;2023-02-01T10:59:17;4.80;99.90
19242;DHT22;9755;47.790;9.620;2023-02-01T11:01:47;4.80;99.90
19242;DHT22;9755;47.790;9.620;2023-02-01T11:04:16;4.80;99.90
19242;DHT22;9755;47.790;9.620;2023-02-01T11:06:47;4.90;99.90
19242;DHT22;9755;47.790;9.620;2023-02-01T11:09:19;4.90;99.90
19242;DHT22;9755;47.790;9.620;2023-02-01T11:11:57;5.00;99.90
19242;DHT22;9755;47.790;9.620;2023-02-01T11:14:35;5.00;99.90
19242;DHT22;9755;47.790;9.620;2023-02-01T11:17:26;4.90;99.90
19242;DHT22;9755;47.790;9.620;2023-02-01T11:19:58;4.80;99.90
19242;DHT22;9755;47.790;9.620;2023-02-01T11:22:26;4.90;99.90
19242;DHT22;9755;47.790;9.620;2023-02-01T11:24:55;4.90;99.90
19242;DHT22;9755;47.790;9.620;2023-02-01T11:27:24;4.80;99.90
19242;DHT22;9755;47.790;9.620;2023-02-01T11:29:53;4.80;99.90
19242;DHT22;9755;47.790;9.620;2023-02-01T11:32:24;4.90;99.90
19242;DHT22;9755;47.790;9.620;2023-02-01T11:34:54;4.90;99.90
19242;DHT22;9755;47.790;9.620;2023-02-01T11:37:25;4.90;99.90
19242;DHT22;9755;47.790;9.620;2023-02-01T11:39:55;5.00;99.90
19242;DHT22;9755;47.790;9.620;2023-02-01T11:42:23;5.00;99.90
19242;DHT22;9755;47.790;9.620;2023-02-01T11:44:50;5.00;99.90
19242;DHT22;9755;47.790;9.620;2023-02-01T11:47:25;5.00;83.90
19242;DHT22;9755;47.790;9.620;2023-02-01T11:49:53;5.00;35.90
19242;DHT22;9755;47.790;9.620;2023-02-01T11:52:33;5.00;1.00
19242;DHT22;9755;47.790;9.620;2023-02-01T11:55:18;5.00;14.00
19242;DHT22;9755;47.790;9.620;2023-02-01T11:58:02;5.10;1.00
19242;DHT22;9755;47.790;9.620;2023-02-01T12:00:46;5.10;5.20
19242;DHT22;9755;47.790;9.620;2023-02-01T12:06:28;5.20;1.00
19242;DHT22;9755;47.790;9.620;2023-02-01T12:09:11;5.20;1.00
19242;DHT22;9755;47.790;9.620;2023-02-01T12:11:55;5.20;1.00
19242;DHT22;9755;47.790;9.620;2023-02-01T12:14:45;5.30;1.00
19242;DHT22;9755;47.790;9.620;2023-02-01T12:17:31;5.30;1.00
19242;DHT22;9755;47.790;9.620;2023-02-01T12:20:27;5.40;1.00
19242;DHT22;9755;47.790;9.620;2023-02-01T12:23:06;5.50;1.00
19242;DHT22;9755;47.790;9.620;2023-02-01T12:25:43;5.60;1.00
19242;DHT22;9755;47.790;9.620;2023-02-01T12:31:55;5.60;1.00
19242;DHT22;9755;47.790;9.620;2023-02-01T12:34:39;5.60;1.00
19242;DHT22;9755;47.790;9.620;2023-02-01T12:37:20;5.60;1.00
19242;DHT22;9755;47.790;9.620;2023-02-01T12:39:54;5.60;1.00
19242;DHT22;9755;47.790;9.620;2023-02-01T12:42:27;5.60;1.00
19242;DHT22;9755;47.790;9.620;2023-02-01T12:45:01;5.60;1.00
19242;DHT22;9755;47.790;9.620;2023-02-01T12:47:35;5.60;1.00
19242;DHT22;9755;47.790;9.620;2023-02-01T12:50:13;5.60;1.00
19242;DHT22;9755;47.790;9.620;2023-02-01T12:52:47;5.60;1.00
19242;DHT22;9755;47.790;9.620;2023-02-01T12:55:19;5.60;1.00
19242;DHT22;9755;47.790;9.620;2023-02-01T12:57:51;5.60;1.00
19242;DHT22;9755;47.790;9.620;2023-02-01T13:00:25;5.60;1.00
19242;DHT22;9755;47.790;9.620;2023-02-01T13:03:02;5.60;1.00
19242;DHT22;9755;47.790;9.620;2023-02-01T13:05:36;5.70;1.00
19242;DHT22;9755;47.790;9.620;2023-02-01T13:08:11;5.70;1.00
19242;DHT22;9755;47.790;9.620;2023-02-01T13:10:43;5.70;1.00
19242;DHT22;9755;47.790;9.620;2023-02-01T13:13:16;5.80;1.00
19242;DHT22;9755;47.790;9.620;2023-02-01T13:15:49;5.80;1.00
19242;DHT22;9755;47.790;9.620;2023-02-01T13:18:19;5.70;1.00
19242;DHT22;9755;47.790;9.620;2023-02-01T13:20:51;5.70;1.00
19242;DHT22;9755;47.790;9.620;2023-02-01T13:23:27;5.70;1.00
19242;DHT22;9755;47.790;9.620;2023-02-01T13:25:55;5.70;1.00
19242;DHT22;9755;47.790;9.620;2023-02-01T13:28:27;5.70;1.00
19242;DHT22;9755;47.790;9.620;2023-02-01T13:31:21;5.70;1.00
19242;DHT22;9755;47.790;9.620;2023-02-01T13:34:03;5.70;1.00
19242;DHT22;9755;47.790;9.620;2023-02-01T13:39:35;5.70;1.00
19242;DHT22;9755;47.790;9.620;2023-02-01T13:42:13;5.60;1.00
19242;DHT22;9755;47.790;9.620;2023-02-01T13:44:44;5.60;1.00
19242;DHT22;9755;47.790;9.620;2023-02-01T13:47:19;5.60;1.00
19242;DHT22;9755;47.790;9.620;2023-02-01T13:49:47;5.60;1.00
19242;DHT22;9755;47.790;9.620;2023-02-01T13:52:27;5.60;1.00
19242;DHT22;9755;47.790;9.620;2023-02-01T13:55:24;5.60;1.00
19242;DHT22;9755;47.790;9.620;2023-02-01T13:58:00;5.60;1.00
19242;DHT22;9755;47.790;9.620;2023-02-01T14:00:29;5.60;1.00
19242;DHT22;9755;47.790;9.620;2023-02-01T14:03:18;5.70;1.00
19242;DHT22;9755;47.790;9.620;2023-02-01T14:06:17;5.60;1.00
19242;DHT22;9755;47.790;9.620;2023-02-01T14:09:05;5.60;1.00
19242;DHT22;9755;47.790;9.620;2023-02-01T14:11:40;5.60;1.00
19242;DHT22;9755;47.790;9.620;2023-02-01T14:17:39;5.50;1.00
19242;DHT22;9755;47.790;9.620;2023-02-01T14:23:16;5.40;1.00
19242;DHT22;9755;47.790;9.620;2023-02-01T14:25:45;5.40;1.00
19242;DHT22;9755;47.790;9.620;2023-02-01T14:28:25;5.50;1.00
19242;DHT22;9755;47.790;9.620;2023-02-01T14:30:54;5.50;1.00
19242;DHT22;9755;47.790;9.620;2023-02-01T14:33:25;5.50;1.00
19242;DHT22;9755;47.790;9.620;2023-02-01T14:36:06;5.50;1.00
19242;DHT22;9755;47.790;9.620;2023-02-01T14:38:35;5.50;1.00
19242;DHT22;9755;47.790;9.620;2023-02-01T14:41:29;5.50;1.00
19242;DHT22;9755;47.790;9.620;2023-02-01T14:44:35;5.50;1.00
19242;DHT22;9755;47.790;9.620;2023-02-01T14:47:05;5.50;1.00
19242;DHT22;9755;47.790;9.620;2023-02-01T14:49:33;5.50;1.00
19242;DHT22;9755;47.790;9.620;2023-02-01T14:52:05;5.50;1.00
19242;DHT22;9755;47.790;9.620;2023-02-01T14:54:33;5.50;1.00
19242;DHT22;9755;47.790;9.620;2023-02-01T14:57:00;5.50;1.00
19242;DHT22;9755;47.790;9.620;2023-02-01T14:59:29;5.50;1.00
19242;DHT22;9755;47.790;9.620;2023-02-01T15:02:00;5.50;1.00
19242;DHT22;9755;47.790;9.620;2023-02-01T15:04:27;5.60;1.00
19242;DHT22;9755;47.790;9.620;2023-02-01T15:06:56;5.60;1.00
19242;DHT22;9755;47.790;9.620;2023-02-01T15:09:27;5.60;1.00
19242;DHT22;9755;47.790;9.620;2023-02-01T15:12:01;5.60;1.00
19242;DHT22;9755;47.790;9.620;2023-02-01T15:14:31;5.60;1.00
19242;DHT22;9755;47.790;9.620;2023-02-01T15:17:00;5.60;1.00
19242;DHT22;9755;47.790;9.620;2023-02-01T15:19:28;5.60;1.00
19242;DHT22;9755;47.790;9.620;2023-02-01T15:21:57;5.60;1.00
19242;DHT22;9755;47.790;9.620;2023-02-01T15:24:26;5.50;1.00
19242;DHT22;9755;47.790;9.620;2023-02-01T15:26:54;5.50;1.00
19242;DHT22;9755;47.790;9.620;2023-02-01T15:29:23;5.50;1.00
19242;DHT22;9755;47.790;9.620;2023-02-01T15:31:53;5.50;1.00
19242;DHT22;9755;47.790;9.620;2023-02-01T15:34:22;5.50;1.00
19242;DHT22;9755;47.790;9.620;2023-02-01T15:36:49;5.50;1.00
19242;DHT22;9755;47.790;9.620;2023-02-01T15:39:20;5.40;1.00
19242;DHT22;9755;47.790;9.620;2023-02-01T15:41:51;5.40;1.00
19242;DHT22;9755;47.790;9.620;2023-02-01T15:44:27;5.40;1.00
19242;DHT22;9755;47.790;9.620;2023-02-01T15:46:54;5.40;1.00
19242;DHT22;9755;47.790;9.620;2023-02-01T15:49:27;5.40;1.00
19242;DHT22;9755;47.790;9.620;2023-02-01T15:51:56;5.30;1.00
19242;DHT22;9755;47.790;9.620;2023-02-01T15:54:26;5.30;1.00
19242;DHT22;9755;47.790;9.620;2023-02-01T15:56:58;5.30;1.00
19242;DHT22;9755;47.790;9.620;2023-02-01T15:59:31;5.30;1.00
19242;DHT22;9755;47.790;9.620;2023-02-01T16:01:58;5.30;1.00
19242;DHT22;9755;47.790;9.620;2023-02-01T16:04:28;5.20;1.00
19242;DHT22;9755;47.790;9.620;2023-02-01T16:06:58;5.30;1.00
19242;DHT22;9755;47.790;9.620;2023-02-01T16:09:36;5.20;1.00
19242;DHT22;9755;47.790;9.620;2023-02-01T16:12:23;5.20;1.00
19242;DHT22;9755;47.790;9.620;2023-02-01T16:14:51;5.20;1.00
19242;DHT22;9755;47.790;9.620;2023-02-01T16:17:18;5.20;1.00
19242;DHT22;9755;47.790;9.620;2023-02-01T16:19:46;5.20;1.00
19242;DHT22;9755;47.790;9.620;2023-02-01T16:22:13;5.10;1.00
19242;DHT22;9755;47.790;9.620;2023-02-01T16:24:40;5.20;1.00
19242;DHT22;9755;47.790;9.620;2023-02-01T16:27:07;5.10;1.00
19242;DHT22;9755;47.790;9.620;2023-02-01T16:29:34;5.10;1.00
19242;DHT22;9755;47.790;9.620;2023-02-01T16:32:01;5.10;1.00
19242;DHT22;9755;47.790;9.620;2023-02-01T16:34:30;5.10;1.00
19242;DHT22;9755;47.790;9.620;2023-02-01T16:36:58;5.10;1.00
19242;DHT22;9755;47.790;9.620;2023-02-01T16:39:26;5.00;1.00
19242;DHT22;9755;47.790;9.620;2023-02-01T16:41:54;5.10;1.00
19242;DHT22;9755;47.790;9.620;2023-02-01T16:44:21;5.10;1.00
19242;DHT22;9755;47.790;9.620;2023-02-01T16:46:48;5.00;1.00
19242;DHT22;9755;47.790;9.620;2023-02-01T16:49:19;5.00;1.00
19242;DHT22;9755;47.790;9.620;2023-02-01T16:51:47;5.00;1.00
19242;DHT22;9755;47.790;9.620;2023-02-01T16:54:16;5.00;1.00
19242;DHT22;9755;47.790;9.620;2023-02-01T16:56:44;5.00;1.00
19242;DHT22;9755;47.790;9.620;2023-02-01T16:59:12;5.00;1.00